Molly Pitcher — WDI3781 — position and weather

sailwx.info

Track history (hours):
 
Tides and Currents Weather Stations Pressure Air Temp Water Temp Dewpoint Dewpoint Depression Visibility Wind Speed Wind Dir Waves Ship Positions

Molly Pitcher

Owner: Port Imperial Ferry Corp, Weehawken, NJ. More information available from US FCC via Universal Licensing System and Coast Guard Vessel Documentation Center.

Last reported at 2018-Feb-23 23:05 UTC. Time now 2018-Feb-24 19:34 UTC.
Position N 40°27' W 074°05'.

Length 33 m; draft 2 m.

Type: Passenger vessel. MMSI: 367691840.

Date/timePositionNaut miles runAvg speedWind from/ knotsBaromVisibWave heightAir tempDewpointWater temp
2018-Feb-23 23:05N 40°27' W 074°05'327.9
2018-Feb-23 22:59N 40°29' W 074°05'1328.0
2018-Feb-23 22:30N 40°42' W 074°00'3 6.8
2018-Feb-23 22:01N 40°39' W 074°03'1319.1
2018-Feb-23 21:20N 40°27' W 074°05'928.8
2018-Feb-23 21:01N 40°36' W 074°03'815.1
2018-Feb-23 20:30N 40°43' W 074°01'3 5.3
2018-Feb-23 20:00N 40°46' W 074°00'0 0.0
2018-Feb-23 15:32N 40°46' W 074°00'0 0.4
2018-Feb-23 15:29N 40°46' W 074°00'714.7
2018-Feb-23 15:01N 40°39' W 074°02'1318.9
2018-Feb-23 14:20N 40°26' W 074°05'927.8
2018-Feb-23 14:01N 40°35' W 074°04'1121.4
2018-Feb-23 13:30N 40°46' W 074°00'714.8
2018-Feb-23 13:01N 40°38' W 074°03'1316.6
2018-Feb-23 12:15N 40°26' W 074°05'625.6
2018-Feb-23 12:00N 40°32' W 074°04'1020.0
2018-Feb-23 11:31N 40°42' W 074°01'1121.4
2018-Feb-23 11:00N 40°31' W 074°04'5 0.4
2018-Feb-22 23:08N 40°26' W 074°05'428.9
2018-Feb-22 23:00N 40°30' W 074°04'1325.6
2018-Feb-22 22:31N 40°42' W 074°00'4 7.2
2018-Feb-22 22:01N 40°39' W 074°03'1113.6
2018-Feb-22 21:14N 40°29' W 074°04'729.8
2018-Feb-22 21:00N 40°36' W 074°03'815.1
2018-Feb-22 20:30N 40°43' W 074°01'3 5.5
2018-Feb-22 20:00N 40°46' W 074°00'0 0.0
2018-Feb-22 15:33N 40°46' W 074°00'0 0.6
2018-Feb-22 15:30N 40°46' W 074°00'815.7
2018-Feb-22 15:00N 40°38' W 074°03'1216.4
2018-Feb-22 14:18N 40°27' W 074°05'828.7
2018-Feb-22 14:00N 40°35' W 074°04'918.7
2018-Feb-22 13:31N 40°44' W 074°01'612.5
2018-Feb-22 13:00N 40°38' W 074°02'1214.9
2018-Feb-22 12:13N 40°26' W 074°05'629.0
2018-Feb-22 12:00N 40°33' W 074°04'1019.9
2018-Feb-22 11:30N 40°42' W 074°00'12 0.9
2018-Feb-21 22:56N 40°31' W 074°04'1227.3
2018-Feb-21 22:30N 40°42' W 074°00'3 6.7
2018-Feb-21 22:00N 40°39' W 074°03'1320.0
2018-Feb-21 21:20N 40°26' W 074°05'928.3
2018-Feb-21 21:00N 40°35' W 074°03'815.7
2018-Feb-21 20:31N 40°43' W 074°01'3 5.1
2018-Feb-21 20:00N 40°46' W 074°00'0 0.0
2018-Feb-21 15:34N 40°46' W 074°00'0 5.3
2018-Feb-21 15:30N 40°45' W 074°01'714.9
2018-Feb-21 15:00N 40°38' W 074°03'3 2.8
2018-Feb-21 14:02N 40°35' W 074°03'127.7
2018-Feb-21 14:01N 40°36' W 074°03'917.8
2018-Feb-21 13:31N 40°45' W 074°01'714.4
2018-Feb-21 13:01N 40°38' W 074°03'6 7.0
2018-Feb-21 12:05N 40°31' W 074°05'528.1
2018-Feb-21 11:55N 40°36' W 074°03'716.4
2018-Feb-21 11:30N 40°42' W 074°00'7 0.5
2018-Feb-20 22:46N 40°36' W 074°03'726.6
2018-Feb-20 22:30N 40°42' W 074°00'3 6.1
2018-Feb-20 22:00N 40°39' W 074°02'3 3.3
2018-Feb-20 20:59N 40°36' W 074°03'714.8
2018-Feb-20 20:30N 40°43' W 074°01'3 5.1
2018-Feb-20 20:00N 40°46' W 074°00'0 0.1
2018-Feb-20 15:38N 40°46' W 074°01'1 7.0
2018-Feb-20 15:30N 40°45' W 074°01'816.2
2018-Feb-20 15:00N 40°37' W 074°03'2 2.4
2018-Feb-20 14:09N 40°35' W 074°03'427.7
2018-Feb-20 14:01N 40°39' W 074°03'4 7.8
2018-Feb-20 13:31N 40°43' W 074°02'611.9
2018-Feb-20 13:00N 40°37' W 074°03'4 4.0
2018-Feb-20 12:06N 40°33' W 074°04'225.1
2018-Feb-20 12:00N 40°35' W 074°03'714.3
2018-Feb-20 11:30N 40°42' W 074°00'  
2018-Feb-16 23:38N 40°35' W 074°03'427.1
2018-Feb-16 23:30N 40°38' W 074°02'4 9.0
2018-Feb-16 23:00N 40°43' W 074°02'8 6.4
2018-Feb-16 21:49N 40°35' W 074°03'722.9
2018-Feb-16 21:30N 40°42' W 074°00'3 6.5
2018-Feb-16 20:59N 40°46' W 074°00'1 1.6
2018-Feb-16 20:30N 40°46' W 074°01'0 0.0
2018-Feb-16 19:57N 40°46' W 074°01'0 0.0
2018-Feb-16 19:29N 40°46' W 074°01'0 0.0
2018-Feb-16 19:00N 40°46' W 074°01'0 0.0
2018-Feb-16 18:30N 40°46' W 074°01'0 0.0
2018-Feb-16 17:58N 40°46' W 074°01'0 0.0
2018-Feb-16 17:30N 40°46' W 074°01'0 0.0
2018-Feb-16 17:00N 40°46' W 074°01'0 0.0
2018-Feb-16 16:30N 40°46' W 074°01'0 0.0
2018-Feb-16 16:00N 40°46' W 074°01'0 0.0
2018-Feb-16 15:28N 40°46' W 074°01'0 0.0
2018-Feb-16 14:48N 40°46' W 074°01'0 0.0
2018-Feb-16 14:30N 40°46' W 074°01'3 6.9
2018-Feb-16 14:00N 40°43' W 074°01'714.0
2018-Feb-16 13:30N 40°36' W 074°03'2 2.4
2018-Feb-16 12:41N 40°34' W 074°04'528.3
2018-Feb-16 12:31N 40°39' W 074°03'4 7.3
2018-Feb-16 12:00N 40°42' W 074°00'9 0.7
2018-Feb-15 22:58N 40°33' W 074°04'919.3
2018-Feb-15 22:30N 40°42' W 074°00'4 8.5
2018-Feb-15 22:00N 40°39' W 074°03'6 7.4
2018-Feb-15 21:10N 40°33' W 074°04'527.2
2018-Feb-15 21:00N 40°37' W 074°03'612.8
2018-Feb-15 20:30N 40°43' W 074°01'3 4.8
2018-Feb-15 19:58N 40°46' W 074°00'1 1.6
2018-Feb-15 19:30N 40°46' W 074°01'0 0.0
2018-Feb-15 19:00N 40°46' W 074°01'0 0.0
2018-Feb-15 18:30N 40°46' W 074°01'0 0.0
2018-Feb-15 17:58N 40°46' W 074°01'0 0.0
2018-Feb-15 17:30N 40°46' W 074°01'0 0.0
2018-Feb-15 17:00N 40°46' W 074°01'0 0.5
2018-Feb-15 16:30N 40°46' W 074°01'0 0.1
2018-Feb-15 16:00N 40°46' W 074°01'4 8.1
2018-Feb-15 15:31N 40°42' W 074°01'8 6.7
2018-Feb-15 14:19N 40°34' W 074°04'826.2
2018-Feb-15 14:01N 40°42' W 074°02'1 1.7
2018-Feb-15 13:30N 40°43' W 074°02'612.4
2018-Feb-15 13:00N 40°37' W 074°03'1 0.6
2018-Feb-15 11:59N 40°36' W 074°03'613.0
2018-Feb-15 11:31N 40°42' W 074°00'8 0.7
2018-Feb-14 23:01N 40°34' W 074°04'127.0
2018-Feb-14 22:59N 40°35' W 074°03'715.8
2018-Feb-14 22:31N 40°42' W 074°00'3 6.5
2018-Feb-14 22:01N 40°40' W 074°03'6 7.1
2018-Feb-14 21:08N 40°34' W 074°04'427.5
2018-Feb-14 21:00N 40°37' W 074°03'612.6
2018-Feb-14 20:31N 40°43' W 074°01'2 4.8
2018-Feb-14 20:00N 40°46' W 074°00'1 1.5
2018-Feb-14 19:30N 40°46' W 074°01'0 0.0
2018-Feb-14 19:00N 40°46' W 074°01'0 0.0
2018-Feb-14 18:30N 40°46' W 074°01'0 0.0
2018-Feb-14 18:00N 40°46' W 074°01'0 0.0
2018-Feb-14 17:29N 40°46' W 074°01'0 0.0
2018-Feb-14 17:00N 40°46' W 074°01'0 0.0
2018-Feb-14 16:30N 40°46' W 074°01'0 0.4
2018-Feb-14 15:58N 40°46' W 074°01'2 4.6
2018-Feb-14 15:31N 40°44' W 074°01'816.0
2018-Feb-14 15:00N 40°36' W 074°03'1 1.2
2018-Feb-14 14:11N 40°35' W 074°03'529.0
2018-Feb-14 14:00N 40°40' W 074°03'3 5.3
2018-Feb-14 13:31N 40°43' W 074°02'510.6
2018-Feb-14 13:00N 40°38' W 074°03'4 3.8
2018-Feb-14 12:04N 40°34' W 074°04'227.6
2018-Feb-14 12:00N 40°36' W 074°03'713.2
2018-Feb-14 11:30N 40°42' W 074°00'  
Track history (hours):
 
Tides and Currents Weather Stations Pressure Air Temp Water Temp Dewpoint Dewpoint Depression Visibility Wind Speed Wind Dir Waves Ship Positions

Molly Pitcher

Owner: Port Imperial Ferry Corp, Weehawken, NJ. More information available from US FCC via Universal Licensing System and Coast Guard Vessel Documentation Center.

Last reported at 2018-Feb-23 23:05 UTC. Time now 2018-Feb-24 19:34 UTC.
Position N 40°27' W 074°05'.

Length 33 m; draft 2 m.

Type: Passenger vessel. MMSI: 367691840.

Date/timePositionNaut miles runAvg speedWind from/ knotsBaromVisibWave heightAir tempDewpointWater temp
2018-Feb-23 23:05N 40°27' W 074°05'327.9
2018-Feb-23 22:59N 40°29' W 074°05'1328.0
2018-Feb-23 22:30N 40°42' W 074°00'3 6.8
2018-Feb-23 22:01N 40°39' W 074°03'1319.1
2018-Feb-23 21:20N 40°27' W 074°05'928.8
2018-Feb-23 21:01N 40°36' W 074°03'815.1
2018-Feb-23 20:30N 40°43' W 074°01'3 5.3
2018-Feb-23 20:00N 40°46' W 074°00'0 0.0
2018-Feb-23 15:32N 40°46' W 074°00'0 0.4
2018-Feb-23 15:29N 40°46' W 074°00'714.7
2018-Feb-23 15:01N 40°39' W 074°02'1318.9
2018-Feb-23 14:20N 40°26' W 074°05'927.8
2018-Feb-23 14:01N 40°35' W 074°04'1121.4
2018-Feb-23 13:30N 40°46' W 074°00'714.8
2018-Feb-23 13:01N 40°38' W 074°03'1316.6
2018-Feb-23 12:15N 40°26' W 074°05'625.6
2018-Feb-23 12:00N 40°32' W 074°04'1020.0
2018-Feb-23 11:31N 40°42' W 074°01'1121.4
2018-Feb-23 11:00N 40°31' W 074°04'5 0.4
2018-Feb-22 23:08N 40°26' W 074°05'428.9
2018-Feb-22 23:00N 40°30' W 074°04'1325.6
2018-Feb-22 22:31N 40°42' W 074°00'4 7.2
2018-Feb-22 22:01N 40°39' W 074°03'1113.6
2018-Feb-22 21:14N 40°29' W 074°04'729.8
2018-Feb-22 21:00N 40°36' W 074°03'815.1
2018-Feb-22 20:30N 40°43' W 074°01'3 5.5
2018-Feb-22 20:00N 40°46' W 074°00'0 0.0
2018-Feb-22 15:33N 40°46' W 074°00'0 0.6
2018-Feb-22 15:30N 40°46' W 074°00'815.7
2018-Feb-22 15:00N 40°38' W 074°03'1216.4
2018-Feb-22 14:18N 40°27' W 074°05'828.7
2018-Feb-22 14:00N 40°35' W 074°04'918.7
2018-Feb-22 13:31N 40°44' W 074°01'612.5
2018-Feb-22 13:00N 40°38' W 074°02'1214.9
2018-Feb-22 12:13N 40°26' W 074°05'629.0
2018-Feb-22 12:00N 40°33' W 074°04'1019.9
2018-Feb-22 11:30N 40°42' W 074°00'12 0.9
2018-Feb-21 22:56N 40°31' W 074°04'1227.3
2018-Feb-21 22:30N 40°42' W 074°00'3 6.7
2018-Feb-21 22:00N 40°39' W 074°03'1320.0
2018-Feb-21 21:20N 40°26' W 074°05'928.3
2018-Feb-21 21:00N 40°35' W 074°03'815.7
2018-Feb-21 20:31N 40°43' W 074°01'3 5.1
2018-Feb-21 20:00N 40°46' W 074°00'0 0.0
2018-Feb-21 15:34N 40°46' W 074°00'0 5.3
2018-Feb-21 15:30N 40°45' W 074°01'714.9
2018-Feb-21 15:00N 40°38' W 074°03'3 2.8
2018-Feb-21 14:02N 40°35' W 074°03'127.7
2018-Feb-21 14:01N 40°36' W 074°03'917.8
2018-Feb-21 13:31N 40°45' W 074°01'714.4
2018-Feb-21 13:01N 40°38' W 074°03'6 7.0
2018-Feb-21 12:05N 40°31' W 074°05'528.1
2018-Feb-21 11:55N 40°36' W 074°03'716.4
2018-Feb-21 11:30N 40°42' W 074°00'7 0.5
2018-Feb-20 22:46N 40°36' W 074°03'726.6
2018-Feb-20 22:30N 40°42' W 074°00'3 6.1
2018-Feb-20 22:00N 40°39' W 074°02'3 3.3
2018-Feb-20 20:59N 40°36' W 074°03'714.8
2018-Feb-20 20:30N 40°43' W 074°01'3 5.1
2018-Feb-20 20:00N 40°46' W 074°00'0 0.1
2018-Feb-20 15:38N 40°46' W 074°01'1 7.0
2018-Feb-20 15:30N 40°45' W 074°01'816.2
2018-Feb-20 15:00N 40°37' W 074°03'2 2.4
2018-Feb-20 14:09N 40°35' W 074°03'427.7
2018-Feb-20 14:01N 40°39' W 074°03'4 7.8
2018-Feb-20 13:31N 40°43' W 074°02'611.9
2018-Feb-20 13:00N 40°37' W 074°03'4 4.0
2018-Feb-20 12:06N 40°33' W 074°04'225.1
2018-Feb-20 12:00N 40°35' W 074°03'714.3
2018-Feb-20 11:30N 40°42' W 074°00'  
2018-Feb-16 23:38N 40°35' W 074°03'427.1
2018-Feb-16 23:30N 40°38' W 074°02'4 9.0
2018-Feb-16 23:00N 40°43' W 074°02'8 6.4
2018-Feb-16 21:49N 40°35' W 074°03'722.9
2018-Feb-16 21:30N 40°42' W 074°00'3 6.5
2018-Feb-16 20:59N 40°46' W 074°00'1 1.6
2018-Feb-16 20:30N 40°46' W 074°01'0 0.0
2018-Feb-16 19:57N 40°46' W 074°01'0 0.0
2018-Feb-16 19:29N 40°46' W 074°01'0 0.0
2018-Feb-16 19:00N 40°46' W 074°01'0 0.0
2018-Feb-16 18:30N 40°46' W 074°01'0 0.0
2018-Feb-16 17:58N 40°46' W 074°01'0 0.0
2018-Feb-16 17:30N 40°46' W 074°01'0 0.0
2018-Feb-16 17:00N 40°46' W 074°01'0 0.0
2018-Feb-16 16:30N 40°46' W 074°01'0 0.0
2018-Feb-16 16:00N 40°46' W 074°01'0 0.0
2018-Feb-16 15:28N 40°46' W 074°01'0 0.0
2018-Feb-16 14:48N 40°46' W 074°01'0 0.0
2018-Feb-16 14:30N 40°46' W 074°01'3 6.9
2018-Feb-16 14:00N 40°43' W 074°01'714.0
2018-Feb-16 13:30N 40°36' W 074°03'2 2.4
2018-Feb-16 12:41N 40°34' W 074°04'528.3
2018-Feb-16 12:31N 40°39' W 074°03'4 7.3
2018-Feb-16 12:00N 40°42' W 074°00'9 0.7
2018-Feb-15 22:58N 40°33' W 074°04'919.3
2018-Feb-15 22:30N 40°42' W 074°00'4 8.5
2018-Feb-15 22:00N 40°39' W 074°03'6 7.4
2018-Feb-15 21:10N 40°33' W 074°04'527.2
2018-Feb-15 21:00N 40°37' W 074°03'612.8
2018-Feb-15 20:30N 40°43' W 074°01'3 4.8
2018-Feb-15 19:58N 40°46' W 074°00'1 1.6
2018-Feb-15 19:30N 40°46' W 074°01'0 0.0
2018-Feb-15 19:00N 40°46' W 074°01'0 0.0
2018-Feb-15 18:30N 40°46' W 074°01'0 0.0
2018-Feb-15 17:58N 40°46' W 074°01'0 0.0
2018-Feb-15 17:30N 40°46' W 074°01'0 0.0
2018-Feb-15 17:00N 40°46' W 074°01'0 0.5
2018-Feb-15 16:30N 40°46' W 074°01'0 0.1
2018-Feb-15 16:00N 40°46' W 074°01'4 8.1
2018-Feb-15 15:31N 40°42' W 074°01'8 6.7
2018-Feb-15 14:19N 40°34' W 074°04'826.2
2018-Feb-15 14:01N 40°42' W 074°02'1 1.7
2018-Feb-15 13:30N 40°43' W 074°02'612.4
2018-Feb-15 13:00N 40°37' W 074°03'1 0.6
2018-Feb-15 11:59N 40°36' W 074°03'613.0
2018-Feb-15 11:31N 40°42' W 074°00'8 0.7
2018-Feb-14 23:01N 40°34' W 074°04'127.0
2018-Feb-14 22:59N 40°35' W 074°03'715.8
2018-Feb-14 22:31N 40°42' W 074°00'3 6.5
2018-Feb-14 22:01N 40°40' W 074°03'6 7.1
2018-Feb-14 21:08N 40°34' W 074°04'427.5
2018-Feb-14 21:00N 40°37' W 074°03'612.6
2018-Feb-14 20:31N 40°43' W 074°01'2 4.8
2018-Feb-14 20:00N 40°46' W 074°00'1 1.5
2018-Feb-14 19:30N 40°46' W 074°01'0 0.0
2018-Feb-14 19:00N 40°46' W 074°01'0 0.0
2018-Feb-14 18:30N 40°46' W 074°01'0 0.0
2018-Feb-14 18:00N 40°46' W 074°01'0 0.0
2018-Feb-14 17:29N 40°46' W 074°01'0 0.0
2018-Feb-14 17:00N 40°46' W 074°01'0 0.0
2018-Feb-14 16:30N 40°46' W 074°01'0 0.4
2018-Feb-14 15:58N 40°46' W 074°01'2 4.6
2018-Feb-14 15:31N 40°44' W 074°01'816.0
2018-Feb-14 15:00N 40°36' W 074°03'1 1.2
2018-Feb-14 14:11N 40°35' W 074°03'529.0
2018-Feb-14 14:00N 40°40' W 074°03'3 5.3
2018-Feb-14 13:31N 40°43' W 074°02'510.6
2018-Feb-14 13:00N 40°38' W 074°03'4 3.8
2018-Feb-14 12:04N 40°34' W 074°04'227.6
2018-Feb-14 12:00N 40°36' W 074°03'713.2
2018-Feb-14 11:30N 40°42' W 074°00'  

Dump ship's entire track history